createdAt,value
2023-12-01T00:01:50.858Z,17.88
2023-12-01T00:04:17.704Z,17.77
2023-12-01T00:06:44.778Z,18.10
2023-12-01T00:09:11.611Z,17.92
2023-12-01T00:11:38.446Z,16.55
2023-12-01T00:14:05.199Z,15.40
2023-12-01T00:16:32.467Z,16.20
2023-12-01T00:18:59.487Z,15.10
2023-12-01T00:21:26.400Z,14.35
2023-12-01T00:23:53.181Z,15.27
2023-12-01T00:26:20.026Z,15.50
2023-12-01T00:28:53.955Z,15.43
2023-12-01T00:31:21.212Z,15.50
2023-12-01T00:33:48.102Z,15.77
2023-12-01T00:36:15.018Z,14.80
2023-12-01T00:38:41.838Z,15.93
2023-12-01T00:41:08.632Z,15.13
2023-12-01T00:43:35.834Z,15.75
2023-12-01T00:46:02.713Z,15.98
2023-12-01T00:48:30.840Z,15.43
2023-12-01T00:50:58.121Z,16.70
2023-12-01T00:53:25.437Z,15.73
2023-12-01T00:55:52.395Z,14.70
2023-12-01T00:58:19.407Z,14.88
2023-12-01T01:00:46.429Z,14.20
2023-12-01T01:03:14.209Z,15.23
2023-12-01T01:05:41.188Z,14.15
2023-12-01T01:08:08.436Z,14.05
2023-12-01T01:10:35.268Z,13.88
2023-12-01T01:13:02.103Z,14.77
2023-12-01T01:15:29.144Z,13.10
2023-12-01T01:17:55.943Z,13.85
2023-12-01T01:20:22.804Z,13.82
2023-12-01T01:22:49.609Z,13.60
2023-12-01T01:25:16.486Z,13.13
2023-12-01T01:27:43.687Z,13.32
2023-12-01T01:30:10.788Z,14.27
2023-12-01T01:32:38.032Z,13.63
2023-12-01T01:35:05.250Z,13.48
2023-12-01T01:37:32.208Z,13.25
2023-12-01T01:39:59.034Z,12.82
2023-12-01T01:42:26.055Z,11.90
2023-12-01T01:44:52.792Z,12.23
2023-12-01T01:47:19.925Z,11.60
2023-12-01T01:49:47.123Z,12.15
2023-12-01T01:52:13.981Z,11.65
2023-12-01T01:54:41.006Z,11.65
2023-12-01T01:57:08.493Z,12.50
2023-12-01T01:59:35.331Z,11.75
2023-12-01T02:02:02.168Z,11.98
2023-12-01T02:04:29.007Z,12.25
2023-12-01T02:06:56.235Z,13.05
2023-12-01T02:09:23.837Z,12.68
2023-12-01T02:11:50.847Z,13.10
2023-12-01T02:14:17.830Z,13.65
2023-12-01T02:16:47.886Z,13.88
2023-12-01T02:19:15.553Z,13.43
2023-12-01T02:21:49.453Z,13.57
2023-12-01T02:24:16.382Z,13.82
2023-12-01T02:26:43.571Z,14.07
2023-12-01T02:29:10.680Z,13.68
2023-12-01T02:31:37.746Z,11.70
2023-12-01T02:34:05.265Z,12.20
2023-12-01T02:36:32.475Z,11.95
2023-12-01T02:38:59.600Z,10.40
2023-12-01T02:41:26.647Z,10.45
2023-12-01T02:43:54.485Z,9.48
2023-12-01T02:46:24.348Z,9.68
2023-12-01T02:48:51.953Z,9.95
2023-12-01T02:51:19.049Z,10.38
2023-12-01T02:53:45.922Z,10.48
2023-12-01T02:56:13.154Z,10.82
2023-12-01T02:58:39.956Z,11.20
2023-12-01T03:01:07.042Z,11.65
2023-12-01T03:03:33.987Z,11.02
2023-12-01T03:06:00.861Z,10.45
2023-12-01T03:08:28.383Z,9.93
2023-12-01T03:10:55.763Z,10.18
2023-12-01T03:13:23.609Z,9.50
2023-12-01T03:15:51.127Z,8.48
2023-12-01T03:18:21.960Z,9.32
2023-12-01T03:20:50.401Z,9.07
2023-12-01T03:23:17.168Z,8.95
2023-12-01T03:25:44.514Z,8.30
2023-12-01T03:28:16.286Z,8.30
2023-12-01T03:30:43.666Z,8.18
2023-12-01T03:33:13.590Z,8.13
2023-12-01T03:35:41.048Z,7.65
2023-12-01T03:38:07.993Z,7.72
2023-12-01T03:40:34.795Z,7.63
2023-12-01T03:43:01.736Z,7.93
2023-12-01T03:45:28.604Z,6.57
2023-12-01T03:47:55.622Z,6.20
2023-12-01T03:50:22.835Z,7.00
2023-12-01T03:52:51.578Z,5.72
2023-12-01T03:55:18.807Z,6.25
2023-12-01T03:57:46.403Z,6.70
2023-12-01T04:00:16.630Z,6.07
2023-12-01T04:02:45.842Z,5.90
2023-12-01T04:05:19.817Z,5.80
2023-12-01T04:07:55.161Z,5.60
2023-12-01T04:10:25.952Z,6.32
2023-12-01T04:12:53.464Z,5.38
2023-12-01T04:15:21.445Z,6.15
2023-12-01T04:17:50.611Z,5.13
2023-12-01T04:20:23.472Z,5.22
2023-12-01T04:23:04.085Z,5.70
2023-12-01T04:25:31.026Z,4.35
2023-12-01T04:27:59.235Z,5.22
2023-12-01T04:30:26.728Z,4.50
2023-12-01T04:32:56.930Z,4.82
2023-12-01T04:35:27.947Z,4.00
2023-12-01T04:37:59.398Z,4.50
2023-12-01T04:40:28.686Z,4.70
2023-12-01T04:42:57.187Z,4.90
2023-12-01T04:45:26.588Z,4.80
2023-12-01T04:47:56.418Z,4.20
2023-12-01T04:50:29.480Z,4.90
2023-12-01T04:52:58.261Z,4.63
2023-12-01T04:55:30.390Z,4.80
2023-12-01T04:57:57.868Z,3.92
2023-12-01T05:00:28.308Z,4.75
2023-12-01T05:03:06.579Z,4.10
2023-12-01T05:05:35.403Z,5.10
2023-12-01T05:08:06.530Z,4.57
2023-12-01T05:10:34.752Z,4.55
2023-12-01T05:13:03.976Z,5.47
2023-12-01T05:15:32.647Z,4.85
2023-12-01T05:18:02.016Z,4.70
2023-12-01T05:20:29.882Z,4.93
2023-12-01T05:23:02.366Z,5.82
2023-12-01T05:25:34.108Z,4.85
2023-12-01T05:28:03.470Z,5.30
2023-12-01T05:30:36.144Z,5.03
2023-12-01T05:33:10.900Z,5.55
2023-12-01T05:35:39.109Z,5.30
2023-12-01T05:38:06.193Z,4.60
2023-12-01T05:40:35.737Z,4.32
2023-12-01T05:43:04.833Z,4.00
2023-12-01T05:45:39.505Z,4.65
2023-12-01T05:48:10.777Z,4.30
2023-12-01T05:50:38.899Z,4.20
2023-12-01T05:53:07.903Z,4.72
2023-12-01T05:55:36.980Z,4.75
2023-12-01T05:58:06.755Z,4.40
2023-12-01T06:00:34.369Z,5.22
2023-12-01T06:03:07.554Z,5.57
2023-12-01T06:05:36.636Z,4.85
2023-12-01T06:08:04.637Z,5.10
2023-12-01T06:10:33.657Z,5.10
2023-12-01T06:13:01.452Z,5.38
2023-12-01T06:15:31.361Z,4.90
2023-12-01T06:17:59.748Z,5.40
2023-12-01T06:20:27.250Z,5.68
2023-12-01T06:22:58.394Z,5.90
2023-12-01T06:25:31.122Z,5.80
2023-12-01T06:28:04.059Z,5.75
2023-12-01T06:30:37.028Z,5.50
2023-12-01T06:33:06.654Z,5.45
2023-12-01T06:35:33.832Z,5.93
2023-12-01T06:38:00.820Z,5.80
2023-12-01T06:40:27.776Z,6.25
2023-12-01T06:42:56.267Z,7.60
2023-12-01T06:45:29.608Z,6.07
2023-12-01T06:48:01.657Z,6.38
2023-12-01T06:50:30.089Z,6.15
2023-12-01T06:53:00.475Z,6.07
2023-12-01T06:55:27.745Z,6.50
2023-12-01T06:57:54.752Z,6.40
2023-12-01T07:00:35.154Z,6.60
2023-12-01T07:03:06.020Z,6.25
2023-12-01T07:05:34.422Z,6.70
2023-12-01T07:08:02.467Z,6.40
2023-12-01T07:10:29.952Z,6.05
2023-12-01T07:12:56.921Z,6.20
2023-12-01T07:15:26.199Z,6.97
2023-12-01T07:17:55.794Z,8.35
2023-12-01T07:20:24.139Z,13.63
2023-12-01T07:22:52.867Z,11.13
2023-12-01T07:25:24.564Z,10.35
2023-12-01T07:28:00.926Z,8.18
2023-12-01T07:30:29.120Z,7.90
2023-12-01T07:32:57.554Z,7.25
2023-12-01T07:35:24.730Z,6.97
2023-12-01T07:37:54.372Z,5.93
2023-12-01T07:40:23.496Z,6.47
2023-12-01T07:42:53.145Z,5.90
2023-12-01T07:45:20.996Z,5.93
2023-12-01T07:47:50.121Z,5.60
2023-12-01T07:50:18.852Z,6.18
2023-12-01T07:52:47.006Z,5.85
2023-12-01T07:55:14.257Z,5.95
2023-12-01T07:57:41.605Z,6.32
2023-12-01T08:00:16.520Z,5.40
2023-12-01T08:02:45.028Z,5.65
2023-12-01T08:05:15.508Z,5.95
2023-12-01T08:07:44.202Z,6.43
2023-12-01T08:10:16.221Z,5.80
2023-12-01T08:12:43.709Z,5.93
2023-12-01T08:15:11.063Z,6.22
2023-12-01T08:17:41.406Z,6.78
2023-12-01T08:20:09.035Z,5.88
2023-12-01T08:22:38.372Z,5.93
2023-12-01T08:25:06.580Z,6.60
2023-12-01T08:27:34.217Z,7.00
2023-12-01T08:30:01.747Z,7.20
2023-12-01T08:32:28.803Z,6.88
2023-12-01T08:34:56.080Z,6.82
2023-12-01T08:37:23.067Z,8.70
2023-12-01T08:39:50.924Z,7.97
2023-12-01T08:42:19.434Z,5.40
2023-12-01T08:44:46.788Z,5.43
2023-12-01T08:47:15.021Z,6.30
2023-12-01T08:49:41.957Z,6.75
2023-12-01T08:52:09.136Z,5.65
2023-12-01T08:54:36.338Z,5.45
2023-12-01T08:57:03.655Z,5.38
2023-12-01T08:59:31.232Z,5.85
2023-12-01T09:01:58.191Z,6.03
2023-12-01T09:04:25.440Z,7.95
2023-12-01T09:06:52.388Z,8.48
2023-12-01T09:09:19.548Z,7.72
2023-12-01T09:11:46.457Z,8.10
2023-12-01T09:14:13.283Z,7.45
2023-12-01T09:16:40.059Z,7.47
2023-12-01T09:19:08.122Z,6.00
2023-12-01T09:21:35.329Z,6.00
2023-12-01T09:24:02.293Z,6.20
2023-12-01T09:26:32.853Z,7.82
2023-12-01T09:28:59.662Z,7.38
2023-12-01T09:31:26.858Z,7.43
2023-12-01T09:33:53.800Z,6.80
2023-12-01T09:36:20.648Z,7.13
2023-12-01T09:38:51.181Z,6.45
2023-12-01T09:41:18.305Z,5.90
2023-12-01T09:43:45.979Z,6.32
2023-12-01T09:46:13.795Z,4.55
2023-12-01T09:48:42.882Z,4.65
2023-12-01T09:51:10.074Z,4.63
2023-12-01T09:53:37.640Z,5.05
2023-12-01T09:56:06.745Z,5.00
2023-12-01T09:58:35.904Z,5.03
2023-12-01T10:01:02.726Z,5.38
2023-12-01T10:03:30.200Z,6.18
2023-12-01T10:06:00.642Z,5.78
2023-12-01T10:08:30.774Z,5.88
2023-12-01T10:10:59.533Z,5.47
2023-12-01T10:13:39.223Z,6.05
2023-12-01T10:16:06.480Z,5.60
2023-12-01T10:18:33.471Z,5.30
2023-12-01T10:21:08.587Z,5.88
2023-12-01T10:23:38.034Z,5.68
2023-12-01T10:26:07.971Z,5.45
2023-12-01T10:28:44.584Z,5.80
2023-12-01T10:31:16.373Z,6.45
2023-12-01T10:33:43.526Z,5.00
2023-12-01T10:36:11.572Z,5.78
2023-12-01T10:38:38.634Z,5.88
2023-12-01T10:41:06.792Z,6.18
2023-12-01T10:43:35.190Z,5.85
2023-12-01T10:46:07.119Z,4.10
2023-12-01T10:48:36.208Z,4.20
2023-12-01T10:51:07.440Z,4.53
2023-12-01T10:53:36.415Z,3.97
2023-12-01T10:56:05.644Z,4.80
2023-12-01T10:58:36.016Z,5.20
2023-12-01T11:01:03.741Z,4.30
2023-12-01T11:03:33.545Z,5.18
2023-12-01T11:06:05.370Z,5.28
2023-12-01T11:09:09.605Z,4.40
2023-12-01T11:11:48.583Z,5.43
2023-12-01T11:14:21.507Z,4.47
2023-12-01T11:16:49.255Z,4.10
2023-12-01T11:19:17.676Z,4.03
2023-12-01T11:21:45.410Z,3.92
2023-12-01T11:24:33.349Z,5.25
2023-12-01T11:27:08.512Z,4.28
2023-12-01T11:29:37.583Z,4.38
2023-12-01T11:32:05.560Z,4.15
2023-12-01T11:34:33.269Z,3.80
2023-12-01T11:37:03.485Z,4.28
2023-12-01T11:39:31.118Z,3.85
2023-12-01T11:42:03.703Z,4.35
2023-12-01T11:44:42.229Z,4.53
2023-12-01T11:47:13.591Z,4.13
2023-12-01T11:49:43.398Z,4.55
2023-12-01T11:52:20.029Z,4.88
2023-12-01T11:54:51.266Z,5.00
2023-12-01T11:57:20.052Z,5.75
2023-12-01T11:59:49.225Z,5.45
2023-12-01T12:02:16.491Z,6.13
2023-12-01T12:04:49.924Z,6.47
2023-12-01T12:07:20.253Z,6.82
2023-12-01T12:09:48.056Z,7.57
2023-12-01T12:12:16.192Z,7.57
2023-12-01T12:14:43.958Z,7.30
2023-12-01T12:17:11.054Z,6.78
2023-12-01T12:19:44.992Z,6.95
2023-12-01T12:22:15.351Z,6.95
2023-12-01T12:24:44.817Z,10.25
2023-12-01T12:27:11.974Z,7.75
2023-12-01T12:29:38.827Z,7.15
2023-12-01T12:32:06.965Z,7.10
2023-12-01T12:34:34.646Z,7.03
2023-12-01T12:37:01.927Z,7.40
2023-12-01T12:39:29.599Z,7.50
2023-12-01T12:42:01.262Z,7.05
2023-12-01T12:44:31.978Z,5.85
2023-12-01T12:47:04.180Z,7.88
2023-12-01T12:49:35.557Z,6.32
2023-12-01T12:52:04.352Z,8.15
2023-12-01T12:54:32.098Z,7.45
2023-12-01T12:56:59.226Z,9.63
2023-12-01T12:59:26.125Z,9.88
2023-12-01T13:01:53.673Z,9.43
2023-12-01T13:04:22.249Z,6.00
2023-12-01T13:06:50.551Z,5.63
2023-12-01T13:09:18.952Z,5.32
2023-12-01T13:11:46.391Z,5.70
2023-12-01T13:14:15.002Z,5.95
2023-12-01T13:16:52.245Z,5.43
2023-12-01T13:19:23.940Z,4.75
2023-12-01T13:21:55.469Z,5.15
2023-12-01T13:24:23.927Z,4.15
2023-12-01T13:26:51.361Z,4.15
2023-12-01T13:29:19.087Z,5.28
2023-12-01T13:31:47.083Z,6.00
2023-12-01T13:34:14.010Z,5.18
2023-12-01T13:36:40.793Z,4.80
2023-12-01T13:39:07.630Z,4.10
2023-12-01T13:41:34.448Z,4.75
2023-12-01T13:44:01.177Z,4.57
2023-12-01T13:46:28.054Z,4.95
2023-12-01T13:48:54.919Z,3.92
2023-12-01T13:51:21.790Z,3.80
2023-12-01T13:53:48.652Z,3.20
2023-12-01T13:56:15.485Z,2.85
2023-12-01T13:58:44.835Z,3.72
2023-12-01T14:01:14.435Z,3.55
2023-12-01T14:03:41.910Z,4.28
2023-12-01T14:06:09.540Z,4.60
2023-12-01T14:08:36.521Z,4.15
2023-12-01T14:11:04.236Z,3.75
2023-12-01T14:13:31.742Z,3.30
2023-12-01T14:15:59.179Z,3.75
2023-12-01T14:18:26.866Z,3.45
2023-12-01T14:20:54.267Z,3.50
2023-12-01T14:23:21.148Z,4.65
2023-12-01T14:25:47.954Z,3.47
2023-12-01T14:28:15.183Z,3.30
2023-12-01T14:30:42.176Z,3.10
2023-12-01T14:33:09.464Z,3.38
2023-12-01T14:35:36.521Z,3.85
2023-12-01T14:38:03.926Z,3.55
2023-12-01T14:40:30.684Z,3.20
2023-12-01T14:42:57.574Z,3.10
2023-12-01T14:45:26.357Z,3.75
2023-12-01T14:47:53.554Z,3.88
2023-12-01T14:50:20.373Z,3.40
2023-12-01T14:52:47.549Z,3.17
2023-12-01T14:55:14.555Z,3.80
2023-12-01T14:57:41.421Z,3.75
2023-12-01T15:00:12.109Z,3.58
2023-12-01T15:02:39.647Z,3.63
2023-12-01T15:05:07.273Z,3.70
2023-12-01T15:07:35.081Z,3.40
2023-12-01T15:10:02.099Z,3.10
2023-12-01T15:12:29.010Z,4.05
2023-12-01T15:14:56.168Z,3.85
2023-12-01T15:17:23.879Z,3.33
2023-12-01T15:19:51.526Z,3.80
2023-12-01T15:22:19.116Z,4.15
2023-12-01T15:24:46.015Z,4.22
2023-12-01T15:27:15.746Z,4.88
2023-12-01T15:29:42.568Z,4.20
2023-12-01T15:32:09.339Z,4.18
2023-12-01T15:34:36.132Z,4.00
2023-12-01T15:37:03.810Z,4.00
2023-12-01T15:39:32.639Z,3.92
2023-12-01T15:42:00.467Z,4.57
2023-12-01T15:44:27.348Z,5.00
2023-12-01T15:46:54.485Z,4.25
2023-12-01T15:49:22.034Z,4.63
2023-12-01T15:51:48.914Z,4.28
2023-12-01T15:54:15.914Z,4.05
2023-12-01T15:56:42.696Z,4.00
2023-12-01T15:59:10.419Z,4.88
2023-12-01T16:01:37.308Z,5.07
2023-12-01T16:04:05.560Z,4.65
2023-12-01T16:06:32.629Z,4.25
2023-12-01T16:08:59.721Z,3.80
2023-12-01T16:11:26.519Z,4.28
2023-12-01T16:13:53.885Z,4.20
2023-12-01T16:16:21.392Z,4.68
2023-12-01T16:18:48.358Z,3.90
2023-12-01T16:21:27.504Z,3.85
2023-12-01T16:23:55.396Z,4.00
2023-12-01T16:26:22.733Z,3.72
2023-12-01T16:28:52.634Z,3.58
2023-12-01T16:31:19.584Z,3.72
2023-12-01T16:33:46.617Z,4.13
2023-12-01T16:36:30.911Z,4.63
2023-12-01T16:39:00.920Z,5.38
2023-12-01T16:41:27.806Z,5.45
2023-12-01T16:43:54.607Z,4.60
2023-12-01T16:46:21.381Z,5.55
2023-12-01T16:48:48.594Z,4.85
2023-12-01T16:51:15.584Z,4.22
2023-12-01T16:53:44.630Z,4.05
2023-12-01T16:56:11.878Z,4.00
2023-12-01T16:58:38.776Z,3.72
2023-12-01T17:01:05.879Z,4.10
2023-12-01T17:03:36.456Z,4.38
2023-12-01T17:06:05.897Z,4.05
2023-12-01T17:08:32.640Z,3.53
2023-12-01T17:10:59.440Z,3.45
2023-12-01T17:13:26.238Z,3.90
2023-12-01T17:15:53.045Z,3.38
2023-12-01T17:18:20.843Z,4.25
2023-12-01T17:20:47.666Z,4.65
2023-12-01T17:23:17.132Z,3.85
2023-12-01T17:25:44.463Z,6.50
2023-12-01T17:28:15.089Z,6.43
2023-12-01T17:30:42.232Z,5.40
2023-12-01T17:33:09.319Z,7.35
2023-12-01T17:35:36.558Z,6.90
2023-12-01T17:38:03.449Z,5.22
2023-12-01T17:40:30.245Z,5.07
2023-12-01T17:42:57.069Z,4.90
2023-12-01T17:45:23.806Z,7.10
2023-12-01T17:47:50.770Z,9.38
2023-12-01T17:50:17.634Z,8.20
2023-12-01T17:52:44.511Z,6.82
2023-12-01T17:55:12.337Z,6.63
2023-12-01T17:57:39.079Z,5.65
2023-12-01T18:00:06.510Z,5.75
2023-12-01T18:02:39.326Z,5.93
2023-12-01T18:05:06.478Z,8.13
2023-12-01T18:07:33.457Z,5.28
2023-12-01T18:10:00.441Z,5.78
2023-12-01T18:12:27.326Z,6.82
2023-12-01T18:14:54.351Z,6.43
2023-12-01T18:17:21.296Z,6.15
2023-12-01T18:19:48.504Z,7.10
2023-12-01T18:22:15.337Z,7.35
2023-12-01T18:24:42.121Z,7.05
2023-12-01T18:27:09.216Z,8.18
2023-12-01T18:29:35.960Z,8.48
2023-12-01T18:32:02.790Z,8.02
2023-12-01T18:34:29.762Z,6.47
2023-12-01T18:36:59.348Z,6.20
2023-12-01T18:39:28.522Z,6.15
2023-12-01T18:41:55.434Z,7.63
2023-12-01T18:44:22.752Z,7.28
2023-12-01T18:46:49.577Z,6.75
2023-12-01T18:49:17.512Z,6.97
2023-12-01T18:51:45.031Z,6.95
2023-12-01T18:54:12.583Z,6.15
2023-12-01T18:56:42.719Z,7.15
2023-12-01T18:59:10.514Z,7.22
2023-12-01T19:01:37.510Z,8.73
2023-12-01T19:04:06.239Z,7.88
2023-12-01T19:06:33.714Z,9.57
2023-12-01T19:09:00.743Z,7.97
2023-12-01T19:11:27.570Z,8.30
2023-12-01T19:13:54.752Z,8.43
2023-12-01T19:16:22.005Z,8.45
2023-12-01T19:18:48.954Z,6.88
2023-12-01T19:21:16.040Z,7.18
2023-12-01T19:23:43.171Z,6.97
2023-12-01T19:26:09.981Z,7.05
2023-12-01T19:28:36.897Z,7.18
2023-12-01T19:31:03.727Z,7.00
2023-12-01T19:33:30.718Z,6.80
2023-12-01T19:35:58.109Z,7.38
2023-12-01T19:38:25.011Z,7.45
2023-12-01T19:40:51.887Z,7.38
2023-12-01T19:43:19.211Z,7.70
2023-12-01T19:45:46.771Z,7.40
2023-12-01T19:48:18.854Z,7.57
2023-12-01T19:50:47.619Z,7.55
2023-12-01T19:53:14.430Z,7.45
2023-12-01T19:55:41.204Z,7.50
2023-12-01T19:58:08.615Z,7.63
2023-12-01T20:00:35.748Z,8.00
2023-12-01T20:03:02.824Z,7.15
2023-12-01T20:05:29.889Z,7.07
2023-12-01T20:07:57.734Z,7.45
2023-12-01T20:10:24.559Z,6.93
2023-12-01T20:12:51.383Z,8.75
2023-12-01T20:15:18.590Z,8.07
2023-12-01T20:17:45.583Z,7.80
2023-12-01T20:20:12.419Z,8.77
2023-12-01T20:22:39.245Z,7.43
2023-12-01T20:25:06.963Z,7.43
2023-12-01T20:27:33.846Z,8.48
2023-12-01T20:30:01.154Z,8.07
2023-12-01T20:32:28.403Z,7.82
2023-12-01T20:34:55.795Z,8.48
2023-12-01T20:37:22.644Z,7.30
2023-12-01T20:39:49.436Z,8.43
2023-12-01T20:42:16.494Z,8.13
2023-12-01T20:44:43.440Z,9.90
2023-12-01T20:47:10.262Z,8.07
2023-12-01T20:49:39.383Z,7.22
2023-12-01T20:52:07.931Z,7.70
2023-12-01T20:54:38.013Z,7.85
2023-12-01T20:57:05.223Z,6.47
2023-12-01T20:59:32.067Z,7.35
2023-12-01T21:01:58.932Z,6.68
2023-12-01T21:04:25.925Z,7.35
2023-12-01T21:06:53.123Z,7.65
2023-12-01T21:09:22.705Z,7.57
2023-12-01T21:11:49.804Z,7.30
2023-12-01T21:14:16.788Z,7.78
2023-12-01T21:16:43.581Z,8.38
2023-12-01T21:19:10.486Z,7.70
2023-12-01T21:21:37.453Z,7.25
2023-12-01T21:24:04.729Z,8.05
2023-12-01T21:26:31.600Z,8.07
2023-12-01T21:28:58.370Z,7.35
2023-12-01T21:31:25.279Z,8.13
2023-12-01T21:33:52.682Z,7.65
2023-12-01T21:36:19.734Z,8.70
2023-12-01T21:38:48.114Z,8.00
2023-12-01T21:41:18.496Z,8.55
2023-12-01T21:43:45.966Z,8.35
2023-12-01T21:46:12.815Z,9.00
2023-12-01T21:48:39.668Z,8.60
2023-12-01T21:51:07.366Z,8.57
2023-12-01T21:53:36.012Z,11.80
2023-12-01T21:56:02.848Z,9.75
2023-12-01T21:58:30.534Z,8.23
2023-12-01T22:00:57.344Z,8.48
2023-12-01T22:03:24.391Z,9.25
2023-12-01T22:05:51.448Z,9.20
2023-12-01T22:08:18.668Z,10.25
2023-12-01T22:10:45.434Z,9.60
2023-12-01T22:13:12.221Z,8.50
2023-12-01T22:15:39.018Z,9.55
2023-12-01T22:18:06.016Z,8.25
2023-12-01T22:20:33.074Z,8.88
2023-12-01T22:22:59.957Z,8.50
2023-12-01T22:25:26.939Z,8.63
2023-12-01T22:27:53.715Z,8.60
2023-12-01T22:30:20.706Z,8.68
2023-12-01T22:32:47.704Z,9.00
2023-12-01T22:35:14.493Z,9.57
2023-12-01T22:37:41.258Z,8.25
2023-12-01T22:40:09.866Z,7.85
2023-12-01T22:42:36.660Z,8.00
2023-12-01T22:45:05.199Z,8.63
2023-12-01T22:47:34.831Z,8.48
2023-12-01T22:50:01.663Z,7.53
2023-12-01T22:52:28.841Z,7.90
2023-12-01T22:54:56.150Z,7.45
2023-12-01T22:57:23.338Z,7.60
2023-12-01T22:59:50.243Z,8.40
2023-12-01T23:02:17.241Z,7.50
2023-12-01T23:04:44.317Z,8.27
2023-12-01T23:07:11.173Z,8.27
2023-12-01T23:09:37.911Z,7.22
2023-12-01T23:12:05.628Z,8.35
2023-12-01T23:14:32.460Z,8.18
2023-12-01T23:16:59.273Z,9.32
2023-12-01T23:19:26.298Z,9.48
2023-12-01T23:21:53.336Z,8.57
2023-12-01T23:24:20.201Z,11.05
2023-12-01T23:26:47.054Z,10.48
2023-12-01T23:29:14.102Z,11.35
2023-12-01T23:31:40.915Z,8.10
2023-12-01T23:34:07.804Z,8.43
2023-12-01T23:36:34.667Z,8.60
2023-12-01T23:39:01.581Z,8.60
2023-12-01T23:41:28.353Z,9.10
2023-12-01T23:43:55.235Z,7.95
2023-12-01T23:46:22.282Z,9.32
2023-12-01T23:48:49.194Z,9.27
2023-12-01T23:51:16.145Z,9.68
2023-12-01T23:53:43.300Z,9.65
2023-12-01T23:56:10.640Z,8.65
2023-12-01T23:58:37.507Z,8.70
